Terminal Aerodrome Forecast
Issued by NWS Bismarck, ND

Home | Current Version | Previous Version | Graphics & Text | Print | Product List | Glossary On
Versions: 1 2 3 4 5 6 7 8 9 10 11 12 13 14 15 16 17 18 19 20 21 22 23 24
000
FTUS43 KBIS 272300 RRA
TAFBIS
TAF
KBIS 272340Z 2800/2824 14009KT P6SM SCT040
     FM280500 14004KT P6SM SCT015 BKN040
     FM281600 18005KT P6SM SCT020 BKN060=

USA.gov is the U.S. government's official web portal to all federal, state and local government web resources and services.